This is the latest recevied weather packets stored in our database for station/object DB0OHA-10. If no packets are shown the sender has not sent any weather packets the latest 1 day(s).
| Time | Temp. | Humidity | Pressure | Rain* | Wind** | Luminosity | Snow |
|---|---|---|---|---|---|---|---|
| 1777989611 | 17.78° C | 10% | 1006.8 hPa | 0 mm | 0.45 m/s, 336° | 153 W/m² | - |
| 1777988711 | 17.78° C | 27% | 1006.8 hPa | 0 mm | 0.89 m/s, 284° | 107 W/m² | - |
| 1777987811 | 18.33° C | 39% | 1006.8 hPa | 0 mm | 0.89 m/s, 284° | 149 W/m² | - |
| 1777986911 | 18.89° C | 40% | 1007 hPa | 0 mm | 0 m/s | 244 W/m² | - |
| 1777986011 | 19.44° C | 41% | 1007.1 hPa | 0 mm | 0 m/s | 621 W/m² | - |
| 1777985111 | 20° C | 43% | 1007.3 hPa | 0 mm | 0.45 m/s, 246° | 636 W/m² | - |
| 1777984212 | 19.44° C | 41% | 1007.2 hPa | 0 mm | 0 m/s | 506 W/m² | - |
| 1777983312 | 18.33° C | 41% | 1007.4 hPa | 0 mm | 0.45 m/s, 243° | 357 W/m² | - |
| 1777982412 | 18.33° C | 34% | 1007.5 hPa | 0 mm | 0 m/s | 334 W/m² | - |
| 1777981512 | 18.33° C | 33% | 1007.5 hPa | 0 mm | 0.45 m/s, 271° | 466 W/m² | - |
| 1777980612 | 18.33° C | 25% | 1007.7 hPa | 0 mm | 0.45 m/s, 271° | 446 W/m² | - |
| 1777979712 | 18.33° C | 26% | 1007.8 hPa | 0 mm | 0.89 m/s, 273° | 497 W/m² | - |
| 1777978812 | 17.78° C | 26% | 1007.9 hPa | 0 mm | 0.89 m/s, 273° | 573 W/m² | - |
| 1777977912 | 17.78° C | 7% | 1008.1 hPa | 0 mm | 0.45 m/s, 287° | 650 W/m² | - |
| 1777977012 | 17.22° C | 1% | 1008.3 hPa | 0 mm | 0.45 m/s, 38° | 606 W/m² | - |
| 1777976112 | 16.67° C | 1% | 1008.6 hPa | 0 mm | 0 m/s | 517 W/m² | - |
| 1777975212 | 16.11° C | 1% | 1008.7 hPa | 0 mm | 0 m/s | 374 W/m² | - |
| 1777974312 | 15.56° C | 1% | 1008.8 hPa | 0 mm | 0 m/s | 258 W/m² | - |
| 1777973412 | 15° C | 1% | 1008.7 hPa | 0 mm | 0 m/s | 281 W/m² | - |
| 1777972518 | 14.44° C | 1% | 1008.6 hPa | 0 mm | 0 m/s | 315 W/m² | - |
| 1777972512 | 14.44° C | 1% | 1008.6 hPa | 0 mm | 0 m/s | 315 W/m² | - |
| 1777971612 | 14.44° C | 1% | 1008.8 hPa | 0 mm | 0 m/s | 278 W/m² | - |
| 1777970712 | 14.44° C | 1% | 1008.9 hPa | 0 mm | 0 m/s | 236 W/m² | - |
| 1777969812 | 13.89° C | 1% | 1008.9 hPa | 0 mm | 0 m/s | 218 W/m² | - |
| 1777968912 | 13.89° C | 1% | 1008.9 hPa | 0 mm | 0 m/s | 192 W/m² | - |
* Rain latest hour (hover to see other rain measurements)
** Current wind speed in m/s (hover to see current wind gust speed)